Time;durP1;ratioP1;P1;durP2;ratioP2;P2;SDS_P1;SDS_P2;PMS_P1;PMS_P2;Temp;Humidity;BMP_temperature;BMP_pressure;BME280_temperature;BME280_humidity;BME280_pressure;Samples;Min_cycle;Max_cycle;Signal;HPM_P1;HPM_P2
2021/11/09 00:09:56;;;;;;;6.03;1.80;;;7.30;99.90;;;;;;20484729;28;20046;-44
2021/11/09 00:19:56;;;;;;;9.48;3.15;;;7.30;99.90;;;;;;20484431;28;20038;-44
2021/11/09 00:29:57;;;;;;;9.38;2.55;;;7.30;99.90;;;;;;20472576;28;20071;-44
2021/11/09 00:39:59;;;;;;;8.23;2.25;;;7.20;99.90;;;;;;20468858;28;20046;-44
2021/11/09 00:50:00;;;;;;;11.65;3.28;;;7.20;99.90;;;;;;20475619;28;20410;-44
2021/11/09 01:00:05;;;;;;;5.45;2.38;;;7.20;99.90;;;;;;20472978;28;20038;-44
2021/11/09 01:10:09;;;;;;;10.25;2.30;;;7.10;99.90;;;;;;20466280;28;20097;-44
2021/11/09 01:20:13;;;;;;;4.80;2.10;;;7.00;99.90;;;;;;20476579;28;20045;-44
2021/11/09 01:30:16;;;;;;;10.60;2.53;;;6.90;99.90;;;;;;20491818;28;20038;-44
2021/11/09 01:40:20;;;;;;;12.57;1.70;;;6.90;99.90;;;;;;20466940;28;20616;-44
2021/11/09 01:50:29;;;;;;;13.40;2.65;;;6.90;99.90;;;;;;20480105;28;20059;-44
2021/11/09 02:00:34;;;;;;;11.82;3.30;;;7.00;99.90;;;;;;20474835;28;20039;-44
2021/11/09 02:10:41;;;;;;;8.80;2.38;;;6.90;99.90;;;;;;20447520;28;20063;-44
2021/11/09 02:20:49;;;;;;;12.60;2.58;;;6.90;99.90;;;;;;20462688;28;20073;-44
2021/11/09 02:30:51;;;;;;;5.05;2.13;;;6.80;99.90;;;;;;20461817;28;20379;-44
2021/11/09 02:40:52;;;;;;;10.63;2.53;;;6.80;99.90;;;;;;20474681;28;20642;-44
2021/11/09 02:51:02;;;;;;;5.85;2.58;;;6.80;99.90;;;;;;20473288;28;20600;-44
2021/11/09 03:01:09;;;;;;;13.25;3.15;;;6.80;99.90;;;;;;20467312;28;20555;-44
2021/11/09 03:11:10;;;;;;;7.97;2.47;;;6.80;99.90;;;;;;20463915;28;20054;-44
2021/11/09 03:52:06;;;;;;;10.70;2.78;;;6.70;99.90;;;;;;20478534;28;20042;-44
2021/11/09 04:23:17;;;;;;;7.43;2.77;;;6.60;99.90;;;;;;20477693;28;20042;-44
2021/11/09 05:13:27;;;;;;;13.57;3.92;;;6.40;99.90;;;;;;20491155;28;20051;-44
2021/11/09 05:23:28;;;;;;;7.47;2.67;;;6.40;99.90;;;;;;20485677;28;20050;-44
2021/11/09 05:33:29;;;;;;;10.05;3.08;;;6.30;99.90;;;;;;20505459;28;20042;-44
2021/11/09 05:43:30;;;;;;;18.45;3.60;;;6.30;99.90;;;;;;20507141;28;20511;-43
2021/11/09 05:53:33;;;;;;;10.90;3.50;;;6.40;99.90;;;;;;20494981;28;20062;-44
2021/11/09 06:03:35;;;;;;;5.28;2.80;;;6.30;99.90;;;;;;20486624;28;20054;-44
2021/11/09 06:13:36;;;;;;;9.50;3.78;;;6.40;99.90;;;;;;20502490;28;20046;-44
2021/11/09 06:23:37;;;;;;;10.57;3.40;;;6.40;99.90;;;;;;20494677;28;20063;-44
2021/11/09 06:33:38;;;;;;;13.45;3.53;;;6.40;99.90;;;;;;20517401;28;20043;-44
2021/11/09 06:43:39;;;;;;;14.68;3.50;;;6.40;99.90;;;;;;20508228;28;20592;-44
2021/11/09 06:53:42;;;;;;;14.32;3.33;;;6.50;99.90;;;;;;20503418;28;20050;-44
2021/11/09 07:03:44;;;;;;;16.58;5.35;;;6.50;99.90;;;;;;20497514;28;20042;-44
2021/11/09 07:13:46;;;;;;;12.15;3.42;;;6.50;99.90;;;;;;20480737;28;20054;-44
2021/11/09 07:23:47;;;;;;;11.68;3.88;;;6.70;99.90;;;;;;20481608;28;20047;-44
2021/11/09 07:33:50;;;;;;;7.40;3.60;;;6.70;99.90;;;;;;20500238;28;20046;-44
2021/11/09 07:43:51;;;;;;;8.80;3.92;;;6.90;99.90;;;;;;20498601;28;20050;-44
2021/11/09 07:53:54;;;;;;;7.60;3.22;;;6.80;99.90;;;;;;20504283;28;20049;-44
2021/11/09 08:13:56;;;;;;;15.88;3.45;;;7.00;99.90;;;;;;20512495;28;20038;-44
2021/11/09 08:23:57;;;;;;;10.15;4.03;;;7.10;99.90;;;;;;20510369;28;20042;-44
2021/11/09 08:33:59;;;;;;;8.70;3.10;;;7.40;99.90;;;;;;20479054;28;20066;-44
2021/11/09 08:44:05;;;;;;;13.05;3.45;;;7.60;99.90;;;;;;20514364;28;20093;-44
2021/11/09 08:54:12;;;;;;;7.50;3.35;;;7.80;99.90;;;;;;20511287;28;20055;-44
2021/11/09 09:04:20;;;;;;;7.25;3.55;;;8.00;99.90;;;;;;20495317;28;20051;-44
2021/11/09 09:14:22;;;;;;;;;;;8.20;99.90;;;;;;20506418;28;20750;-44
2021/11/09 09:55:47;;;;;;;10.45;3.45;;;8.80;99.90;;;;;;20482312;28;20571;-44
2021/11/09 10:05:45;;;;;;;10.25;4.45;;;8.80;99.90;;;;;;20505639;28;20051;-44
2021/11/09 10:15:52;;;;;;;13.80;3.70;;;8.80;99.90;;;;;;20514679;28;20465;-44
2021/11/09 10:26:01;;;;;;;11.00;3.90;;;9.10;99.90;;;;;;20514222;28;20058;-44
2021/11/09 10:36:03;;;;;;;8.85;3.13;;;9.40;99.90;;;;;;20513343;28;20057;-44
2021/11/09 10:46:04;;;;;;;10.15;3.83;;;9.50;99.90;;;;;;20516784;28;20039;-44
2021/11/09 11:06:35;;;;;;;7.75;4.10;;;10.00;99.90;;;;;;20474631;28;20046;-44
2021/11/09 11:16:48;;;;;;;12.25;3.33;;;10.20;99.90;;;;;;21050627;27;20752;-44
2021/11/09 11:26:51;;;;;;;16.08;2.83;;;10.30;99.90;;;;;;21057605;28;20032;-44
2021/11/09 11:36:53;;;;;;;5.95;2.30;;;10.30;99.90;;;;;;21095352;28;20055;-44
2021/11/09 11:47:21;;;;;;;14.75;3.60;;;10.40;99.90;;;;;;21117669;27;20115;-44
2021/11/09 11:57:43;;;;;;;9.25;3.60;;;10.40;99.90;;;;;;21099821;27;20389;-44
2021/11/09 12:08:03;;;;;;;23.77;4.20;;;10.40;99.90;;;;;;21108089;28;20047;-44
2021/11/09 12:18:37;;;;;;;9.27;2.65;;;10.50;99.90;;;;;;21110986;27;20082;-44
2021/11/09 12:28:38;;;;;;;7.65;2.72;;;10.50;99.90;;;;;;21060633;28;20040;-44
2021/11/09 12:38:43;;;;;;;9.15;2.15;;;10.80;99.90;;;;;;21062646;28;20043;-44
2021/11/09 12:48:55;;;;;;;11.98;2.80;;;10.90;99.90;;;;;;21055748;28;20047;-44
2021/11/09 12:59:04;;;;;;;5.53;2.40;;;10.90;99.90;;;;;;21051308;28;20509;-44
2021/11/09 13:09:15;;;;;;;7.88;2.67;;;11.10;99.90;;;;;;21037605;28;20048;-44
2021/11/09 13:19:23;;;;;;;6.78;2.30;;;11.10;99.90;;;;;;21055836;28;20039;-44
2021/11/09 13:29:24;;;;;;;7.70;2.20;;;11.20;99.90;;;;;;21054666;28;20043;-44
2021/11/09 13:39:25;;;;;;;8.23;2.25;;;11.30;99.90;;;;;;21058576;28;20051;-44
2021/11/09 13:49:26;;;;;;;7.68;3.20;;;11.40;99.90;;;;;;21046998;27;20490;-44
2021/11/09 13:59:35;;;;;;;6.10;2.65;;;11.40;99.90;;;;;;21056282;27;20043;-44
2021/11/09 14:19:42;;;;;;;5.68;2.40;;;11.40;99.90;;;;;;20944496;28;20032;-44
2021/11/09 14:29:54;;;;;;;10.25;3.00;;;11.30;99.90;;;;;;20976509;28;20477;-44
2021/11/09 14:40:11;;;;;;;5.95;2.88;;;11.40;99.90;;;;;;21008732;22;20042;-85
2021/11/09 15:01:28;;;;;;;13.75;3.83;;;11.50;99.90;;;;;;20447791;28;19934;-43
2021/11/09 15:11:34;;;;;;;11.05;3.65;;;11.50;99.90;;;;;;20443693;28;20039;-43
2021/11/09 15:31:59;;;;;;;10.63;3.30;;;11.30;99.90;;;;;;20439454;28;20065;-43
2021/11/09 15:42:00;;;;;;;10.60;2.67;;;11.30;99.90;;;;;;20456155;28;20041;-43
2021/11/09 15:52:01;;;;;;;8.82;3.45;;;11.40;99.90;;;;;;20526897;28;21101;-43
2021/11/09 16:02:03;;;;;;;15.43;3.13;;;11.20;99.90;;;;;;20606386;28;20533;-43
2021/11/09 16:12:05;;;;;;;6.72;2.72;;;11.20;99.90;;;;;;20605088;28;20061;-43
2021/11/09 16:22:21;;;;;;;11.52;3.17;;;11.10;99.90;;;;;;20627946;28;20057;-43
2021/11/09 16:32:24;;;;;;;9.32;3.00;;;11.10;99.90;;;;;;20578592;28;20085;-43
2021/11/09 16:42:31;;;;;;;12.90;3.15;;;11.10;99.90;;;;;;20607521;28;21068;-43
2021/11/09 16:52:33;;;;;;;10.13;2.50;;;11.00;99.90;;;;;;20612657;28;20050;-43
2021/11/09 18:24:49;;;;;;;6.82;2.72;;;10.80;99.90;;;;;;20692652;28;20062;-43
2021/11/09 18:34:53;;;;;;;9.57;2.58;;;10.90;99.90;;;;;;20689546;28;20185;-43
2021/11/09 18:44:54;;;;;;;5.32;2.15;;;10.80;99.90;;;;;;20699559;28;20040;-44
2021/11/09 18:54:56;;;;;;;7.80;3.90;;;10.80;99.90;;;;;;20695080;28;20053;-43
2021/11/09 19:04:59;;;;;;;4.90;2.25;;;10.70;99.90;;;;;;20696846;28;20041;-43
2021/11/09 19:15:00;;;;;;;9.75;2.28;;;10.70;99.90;;;;;;20694318;28;20060;-43
2021/11/09 19:25:05;;;;;;;7.75;2.75;;;10.60;99.90;;;;;;20692351;28;20502;-43
2021/11/09 19:35:08;;;;;;;13.20;3.65;;;10.60;99.90;;;;;;20698407;28;20049;-43
2021/11/09 19:45:21;;;;;;;6.70;2.08;;;10.50;99.90;;;;;;20707932;28;20430;-43
2021/11/09 19:55:51;;;;;;;10.10;2.45;;;10.60;99.90;;;;;;20711511;28;20049;-43
2021/11/09 20:05:55;;;;;;;7.07;2.30;;;10.60;99.90;;;;;;20717789;28;20376;-43
2021/11/09 20:15:58;;;;;;;7.15;2.00;;;10.50;99.90;;;;;;20703360;28;20053;-43
2021/11/09 20:25:59;;;;;;;9.20;2.03;;;10.60;99.90;;;;;;20706423;28;20045;-43
2021/11/09 20:36:01;;;;;;;7.07;2.83;;;10.50;99.90;;;;;;20700098;28;20206;-43
2021/11/09 20:46:04;;;;;;;11.35;2.20;;;10.60;99.90;;;;;;20712417;28;20064;-43
2021/11/09 20:56:06;;;;;;;14.10;2.72;;;10.50;99.90;;;;;;20734006;28;20049;-43
2021/11/09 21:06:07;;;;;;;8.90;2.30;;;10.50;99.90;;;;;;20745933;28;22091;-44
2021/11/09 21:26:29;;;;;;;11.57;2.95;;;10.50;99.90;;;;;;20758813;28;20043;-44
2021/11/09 21:36:30;;;;;;;14.88;3.33;;;10.50;99.90;;;;;;20739309;28;20049;-44
2021/11/09 21:46:31;;;;;;;6.15;3.10;;;10.50;99.90;;;;;;20725746;28;20569;-43
2021/11/09 21:56:33;;;;;;;9.10;2.95;;;10.50;99.90;;;;;;20737789;28;20068;-43
2021/11/09 22:06:35;;;;;;;13.38;3.35;;;10.50;99.90;;;;;;20737180;28;20033;-43
2021/11/09 22:16:37;;;;;;;12.07;3.00;;;10.40;99.90;;;;;;20724925;28;20128;-44
2021/11/09 22:26:38;;;;;;;10.65;2.97;;;10.40;99.90;;;;;;20714786;28;20532;-44
2021/11/09 22:36:39;;;;;;;10.38;2.28;;;10.40;99.90;;;;;;20729786;28;20053;-43
2021/11/09 22:46:41;;;;;;;10.40;3.22;;;10.40;99.90;;;;;;20730091;28;20026;-43
2021/11/09 22:56:42;;;;;;;9.18;2.88;;;10.40;99.90;;;;;;20738235;28;20045;-43
2021/11/09 23:06:43;;;;;;;9.98;3.17;;;10.40;99.90;;;;;;20737353;28;20326;-43
2021/11/09 23:16:44;;;;;;;15.50;3.38;;;10.40;99.90;;;;;;20723291;28;20982;-44
2021/11/09 23:26:46;;;;;;;11.38;3.72;;;10.40;99.90;;;;;;20723810;28;20053;-43
2021/11/09 23:36:47;;;;;;;11.18;3.40;;;10.40;99.90;;;;;;20736094;28;20049;-43
2021/11/09 23:46:48;;;;;;;10.45;3.35;;;10.40;99.90;;;;;;20729054;28;20048;-44
2021/11/09 23:56:51;;;;;;;14.65;3.90;;;10.40;99.90;;;;;;20724116;28;20046;-44
